LFPG

Charles de Gaulle International Airport

Paris, France
TAF LFPG 191100Z 1912/2018 21012KT 9999 BKN012 TX10/2012Z TN06/2005Z BECMG 1912/1914 BKN016 TEMPO 1918/2006 4000 SHRA BKN012 SCT040TCU BECMG 2006/2008 22015G25KT
Issued Valid From Valid To
Dec-19 @ 11:00 UTC
(3 hours ago)
Dec-19 @ 12:00 UTC
(2 hours ago)
Dec-20 @ 18:00 UTC
(-1 days ago)
Dec-19 @ 12:00 to Dec-20 @ 18:00
TAF LFPG 191100Z 1912/2018 21012KT 9999 BKN012 TX10/2012Z TN06/2005Z
Wind Visibility Clouds
210° at 12 knots 10,000+ meters
  • Broken at 1,200' AGL
Becoming Dec-19 @ 12:00 to Dec-20 @ 06:00
BECMG 1912/1914 BKN016
Wind Visibility Clouds
210° at 12 knots 10,000+ meters
  • Broken at 1,600' AGL
Temporary Dec-19 @ 18:00 to Dec-20 @ 06:00
TEMPO 1918/2006 4000 SHRA BKN012 SCT040TCU
Visibility Clouds Conditions
4,007 meters
  • Broken at 1,200' AGL
  • Scattered at 4,000' AGL
  • Rain
Becoming Dec-20 @ 06:00 to Dec-20 @ 18:00
BECMG 2006/2008 22015G25KT
Wind Visibility Clouds
220° at 15 knots
 Gusting to 25 knots
10,000+ meters
  • Broken at 1,600' AGL
TAF LFPG 191100Z 1912/2018 21012KT 9999 BKN012 TX10/2012Z TN06/2005Z BECMG 1912/1914 BKN016 TEMPO 1918/2006 4000 SHRA BKN012 SCT040TCU BECMG 2006/2008 22015G25KT
Issued Dec-19 @ 11:00 UTC
(3 hours ago)
Valid From Dec-19 @ 12:00 UTC
(2 hours ago)
Valid To Dec-20 @ 18:00 UTC
(-1 days ago)
Dec-19 @ 12:00 - Dec-20 @ 18:00
Wind Visibility
210° at 12 knots 10,000+ meters
Clouds
  • Broken at 1,200' AGL
Becoming Dec-19 @ 12:00 - Dec-20 @ 06:00
Wind Visibility
210° at 12 knots 10,000+ meters
Clouds
  • Broken at 1,600' AGL
Temporary Dec-19 @ 18:00 - Dec-20 @ 06:00
Clouds
  • Broken at 1,200' AGL
  • Scattered at 4,000' AGL
Conditions
  • Rain
Becoming Dec-20 @ 06:00 - Dec-20 @ 18:00
Wind Visibility
220° at 15 knots
 Gusting to 25 knots
10,000+ meters
Clouds
  • Broken at 1,600' AGL